createdAt,value
2022-11-08T00:01:53.785Z,98167.31
2022-11-08T00:04:57.039Z,98163.25
2022-11-08T00:08:22.097Z,98158.59
2022-11-08T00:11:42.922Z,98153.88
2022-11-08T00:14:46.894Z,98156.88
2022-11-08T00:17:50.121Z,98147.69
2022-11-08T00:20:53.226Z,98147.94
2022-11-08T00:23:57.804Z,98138.03
2022-11-08T00:27:00.935Z,98150.25
2022-11-08T00:30:05.102Z,98148.56
2022-11-08T00:33:08.333Z,98131.94
2022-11-08T00:36:11.699Z,98131.88
2022-11-08T00:39:16.262Z,98154.34
2022-11-08T00:42:19.632Z,98149.75
2022-11-08T00:45:22.844Z,98149.28
2022-11-08T00:48:26.060Z,98139.56
2022-11-08T00:51:29.189Z,98148.41
2022-11-08T00:54:33.893Z,98155.63
2022-11-08T00:57:53.992Z,98152.16
2022-11-08T01:01:00.661Z,98159.00
2022-11-08T01:04:03.877Z,98156.97
2022-11-08T01:07:06.989Z,98151.16
2022-11-08T01:10:11.739Z,98143.78
2022-11-08T01:13:15.022Z,98154.72
2022-11-08T01:16:20.594Z,98143.56
2022-11-08T01:19:23.789Z,98130.44
2022-11-08T01:22:26.969Z,98138.34
2022-11-08T01:25:31.454Z,98141.34
2022-11-08T01:28:35.072Z,98110.91
2022-11-08T01:31:38.206Z,98139.63
2022-11-08T01:34:41.502Z,98148.94
2022-11-08T01:37:44.901Z,98144.63
2022-11-08T01:40:50.065Z,98144.75
2022-11-08T01:43:54.061Z,98143.34
2022-11-08T01:46:57.227Z,98129.53
2022-11-08T01:50:04.620Z,98134.50
2022-11-08T01:53:07.999Z,98135.34
2022-11-08T01:56:16.149Z,98140.59
2022-11-08T01:59:20.252Z,98130.97
2022-11-08T02:02:23.841Z,98132.88
2022-11-08T02:05:29.078Z,98125.81
2022-11-08T02:08:35.571Z,98128.34
2022-11-08T02:11:41.495Z,98121.69
2022-11-08T02:14:46.560Z,98115.63
2022-11-08T02:17:49.995Z,98062.13
2022-11-08T02:21:03.214Z,98079.00
2022-11-08T02:24:11.692Z,98089.81
2022-11-08T02:27:15.793Z,98088.59
2022-11-08T02:30:19.723Z,98049.75
2022-11-08T02:33:24.334Z,98077.53
2022-11-08T02:36:27.621Z,98070.16
2022-11-08T02:39:32.990Z,98082.81
2022-11-08T02:42:39.200Z,98076.72
2022-11-08T02:45:42.412Z,98065.41
2022-11-08T02:48:45.839Z,98065.41
2022-11-08T02:51:49.122Z,98047.25
2022-11-08T02:54:53.638Z,98051.94
2022-11-08T02:57:56.994Z,98062.81
2022-11-08T03:01:00.506Z,98059.47
2022-11-08T03:04:03.923Z,98068.38
2022-11-08T03:07:07.091Z,98067.47
2022-11-08T03:10:12.161Z,98079.13
2022-11-08T03:13:15.526Z,98073.78
2022-11-08T03:16:18.732Z,98076.56
2022-11-08T03:19:22.261Z,98087.31
2022-11-08T03:22:25.635Z,98068.81
2022-11-08T03:25:30.479Z,98079.56
2022-11-08T03:28:34.475Z,98064.50
2022-11-08T03:31:37.737Z,98079.09
2022-11-08T03:34:41.132Z,98031.88
2022-11-08T03:37:50.822Z,98062.44
2022-11-08T03:40:55.427Z,98068.47
2022-11-08T03:43:58.588Z,98055.69
2022-11-08T03:47:02.009Z,98062.56
2022-11-08T03:50:05.823Z,98064.16
2022-11-08T03:53:09.218Z,98070.09
2022-11-08T03:56:13.829Z,98071.91
2022-11-08T03:59:17.082Z,98071.50
2022-11-08T04:02:20.293Z,98065.22
2022-11-08T04:05:23.584Z,98040.41
2022-11-08T04:08:26.754Z,97995.66
2022-11-08T04:11:48.541Z,98064.13
2022-11-08T04:15:09.089Z,98070.63
2022-11-08T04:18:29.607Z,98061.38
2022-11-08T04:21:32.784Z,98046.84
2022-11-08T04:24:35.993Z,98066.56
2022-11-08T04:27:40.535Z,98075.84
2022-11-08T04:34:13.700Z,98020.84
2022-11-08T04:37:16.792Z,98050.66
2022-11-08T04:40:19.997Z,98033.47
2022-11-08T04:43:23.326Z,98057.31
2022-11-08T04:46:28.291Z,98039.53
2022-11-08T04:49:32.771Z,98044.44
2022-11-08T04:52:35.961Z,98046.59
2022-11-08T04:55:39.232Z,98039.09
2022-11-08T04:58:44.582Z,98042.41
2022-11-08T05:01:47.893Z,98037.97
2022-11-08T05:04:52.490Z,98038.25
2022-11-08T05:07:55.918Z,98026.09
2022-11-08T05:11:03.212Z,98016.16
2022-11-08T05:14:06.644Z,98011.94
2022-11-08T05:17:09.873Z,98027.50
2022-11-08T05:20:31.945Z,98002.75
2022-11-08T05:23:35.181Z,98023.91
2022-11-08T05:26:40.119Z,98018.72
2022-11-08T05:29:43.337Z,98007.91
2022-11-08T05:32:46.780Z,98021.31
2022-11-08T05:35:51.771Z,97991.59
2022-11-08T05:38:55.125Z,98017.56
2022-11-08T05:41:58.360Z,98020.16
2022-11-08T05:45:05.271Z,98010.22
2022-11-08T05:48:11.401Z,98003.13
2022-11-08T05:51:17.306Z,98011.09
2022-11-08T05:54:20.646Z,98005.06
2022-11-08T05:57:23.997Z,98011.75
2022-11-08T06:00:27.635Z,98008.34
2022-11-08T06:03:31.789Z,97877.19
2022-11-08T06:06:36.383Z,97988.06
2022-11-08T06:09:40.147Z,97960.25
2022-11-08T06:12:43.264Z,97963.69
2022-11-08T06:15:46.425Z,98005.94
2022-11-08T06:18:50.035Z,98008.41
2022-11-08T06:21:54.470Z,98004.97
2022-11-08T06:24:57.607Z,98018.75
2022-11-08T06:28:01.385Z,98011.84
2022-11-08T06:31:05.816Z,98017.72
2022-11-08T06:34:10.064Z,97988.34
2022-11-08T06:37:14.830Z,98010.13
2022-11-08T06:40:18.263Z,98020.19
2022-11-08T06:43:21.717Z,98033.97
2022-11-08T06:46:25.498Z,98027.09
2022-11-08T06:49:28.599Z,98029.06
2022-11-08T06:52:33.158Z,98035.94
2022-11-08T06:55:36.692Z,98035.63
2022-11-08T06:58:40.898Z,98025.41
2022-11-08T07:01:45.760Z,98021.75
2022-11-08T07:04:49.301Z,98013.16
2022-11-08T07:07:54.173Z,98015.47
2022-11-08T07:10:59.693Z,98004.06
2022-11-08T07:14:02.832Z,98002.03
2022-11-08T07:17:06.307Z,97998.28
2022-11-08T07:20:10.808Z,98004.25
2022-11-08T07:23:15.621Z,98004.88
2022-11-08T07:26:18.894Z,97983.19
2022-11-08T07:29:22.034Z,98008.91
2022-11-08T07:32:25.166Z,98002.06
2022-11-08T07:35:28.932Z,97995.81
2022-11-08T07:38:34.540Z,98008.81
2022-11-08T07:41:37.888Z,98003.81
2022-11-08T07:44:41.029Z,98002.47
2022-11-08T07:47:44.157Z,98003.38
2022-11-08T07:50:47.683Z,97991.63
2022-11-08T07:53:52.299Z,97998.47
2022-11-08T07:56:55.407Z,97996.19
2022-11-08T07:59:59.879Z,97999.81
2022-11-08T08:03:07.448Z,97994.91
2022-11-08T08:06:10.910Z,97984.31
2022-11-08T08:09:15.473Z,97996.97
2022-11-08T08:12:18.611Z,97994.09
2022-11-08T08:15:22.115Z,97986.06
2022-11-08T08:18:25.251Z,97957.22
2022-11-08T08:21:28.330Z,97987.44
2022-11-08T08:24:32.857Z,97985.00
2022-11-08T08:27:36.002Z,97986.69
2022-11-08T08:30:40.745Z,97981.38
2022-11-08T08:33:44.241Z,97969.47
2022-11-08T08:36:47.364Z,97983.09
2022-11-08T08:39:52.079Z,97981.75
2022-11-08T08:42:55.596Z,97972.06
2022-11-08T08:46:00.782Z,97976.81
2022-11-08T08:49:04.410Z,97965.09
2022-11-08T08:52:07.525Z,97981.66
2022-11-08T08:55:12.372Z,97978.06
2022-11-08T08:58:15.851Z,97983.34
2022-11-08T09:04:42.267Z,97970.13
2022-11-08T09:07:45.479Z,97971.19
2022-11-08T09:10:55.246Z,97960.13
2022-11-08T09:13:58.397Z,97959.78
2022-11-08T09:17:01.705Z,97955.69
2022-11-08T09:20:05.252Z,97935.22
2022-11-08T09:23:10.945Z,97965.56
2022-11-08T09:26:15.369Z,97961.38
2022-11-08T09:29:18.862Z,97961.38
2022-11-08T09:32:33.703Z,97963.97
2022-11-08T09:35:46.297Z,97962.72
2022-11-08T09:38:49.487Z,97973.19
2022-11-08T09:42:11.476Z,97968.31
2022-11-08T09:45:35.014Z,97968.91
2022-11-08T09:48:42.369Z,97959.75
2022-11-08T09:51:45.596Z,97950.25
2022-11-08T09:54:49.691Z,97950.06
2022-11-08T09:58:01.766Z,97944.63
2022-11-08T10:01:05.259Z,97891.63
2022-11-08T10:04:13.816Z,97955.19
2022-11-08T10:07:30.157Z,97945.16
2022-11-08T10:10:59.552Z,97935.72
2022-11-08T10:14:16.881Z,97948.00
2022-11-08T10:17:51.590Z,97932.25
2022-11-08T10:21:04.009Z,97929.19
2022-11-08T10:24:18.561Z,97919.50
2022-11-08T10:27:32.842Z,97935.69
2022-11-08T10:34:16.628Z,97916.50
2022-11-08T10:37:20.774Z,97906.16
2022-11-08T10:40:37.524Z,97928.66
2022-11-08T10:43:45.759Z,97925.28
2022-11-08T10:46:51.440Z,97916.81
2022-11-08T10:50:00.932Z,97917.34
2022-11-08T10:53:07.638Z,97909.38
2022-11-08T10:56:10.872Z,97906.44
2022-11-08T10:59:30.836Z,97887.88
2022-11-08T11:02:36.596Z,97873.13
2022-11-08T11:05:43.663Z,97868.72
2022-11-08T11:08:50.555Z,97869.56
2022-11-08T11:11:57.944Z,97888.16
2022-11-08T11:15:05.120Z,97884.31
2022-11-08T11:18:21.433Z,97874.25
2022-11-08T11:21:26.237Z,97891.56
2022-11-08T11:24:29.427Z,97885.28
2022-11-08T11:27:37.713Z,97884.75
2022-11-08T11:30:47.205Z,97889.69
2022-11-08T11:33:50.318Z,97882.88
2022-11-08T11:37:02.440Z,97886.19
2022-11-08T11:40:20.148Z,97884.44
2022-11-08T11:43:32.343Z,97858.19
2022-11-08T11:46:46.814Z,97877.00
2022-11-08T11:49:51.694Z,97870.75
2022-11-08T11:52:57.442Z,97869.47
2022-11-08T11:56:15.608Z,97879.13
2022-11-08T11:59:47.869Z,97870.22
2022-11-08T12:03:22.067Z,97862.94
2022-11-08T12:06:43.319Z,97851.44
2022-11-08T12:09:59.971Z,97846.13
2022-11-08T12:13:15.940Z,97810.19
2022-11-08T12:16:26.323Z,97843.06
2022-11-08T12:19:39.426Z,97836.22
2022-11-08T12:22:54.208Z,97850.78
2022-11-08T12:26:08.221Z,97843.63
2022-11-08T12:29:25.867Z,97843.38
2022-11-08T12:32:45.420Z,97812.03
2022-11-08T12:36:00.121Z,97837.59
2022-11-08T12:39:15.335Z,97838.38
2022-11-08T12:42:37.221Z,97823.19
2022-11-08T12:45:52.517Z,97817.44
2022-11-08T12:49:09.257Z,97826.09
2022-11-08T12:52:22.510Z,97811.28
2022-11-08T12:55:31.190Z,97818.09
2022-11-08T12:58:39.719Z,97818.78
2022-11-08T13:01:43.095Z,97813.88
2022-11-08T13:04:58.959Z,97811.28
2022-11-08T13:08:09.772Z,97814.09
2022-11-08T13:11:21.666Z,97815.41
2022-11-08T13:14:26.955Z,97815.38
2022-11-08T13:17:31.424Z,97820.56
2022-11-08T13:20:42.829Z,97820.91
2022-11-08T13:23:45.991Z,97813.63
2022-11-08T13:26:50.166Z,97814.41
2022-11-08T13:29:56.889Z,97803.81
2022-11-08T13:33:06.972Z,97821.28
2022-11-08T13:36:21.954Z,97785.19
2022-11-08T13:39:52.098Z,97798.63
2022-11-08T13:43:14.537Z,97786.03
2022-11-08T13:46:54.207Z,97797.16
2022-11-08T13:50:31.371Z,97794.75
2022-11-08T13:53:47.408Z,97792.69
2022-11-08T13:56:52.172Z,97793.19
2022-11-08T13:59:56.342Z,97797.66
2022-11-08T14:02:59.411Z,97799.41
2022-11-08T14:06:09.492Z,97799.03
2022-11-08T14:09:22.078Z,97791.91
2022-11-08T14:12:34.428Z,97790.09
2022-11-08T14:15:44.142Z,97794.47
2022-11-08T14:18:47.320Z,97798.97
2022-11-08T14:21:53.465Z,97792.13
2022-11-08T14:25:09.614Z,97798.09
2022-11-08T14:28:26.888Z,97802.47
2022-11-08T14:31:32.370Z,97798.53
2022-11-08T14:34:37.586Z,97816.22
2022-11-08T14:37:44.273Z,97814.13
2022-11-08T14:40:52.013Z,97776.72
2022-11-08T14:43:57.802Z,97800.28
2022-11-08T14:47:30.234Z,97803.47
2022-11-08T14:50:35.375Z,97801.16
2022-11-08T14:53:46.889Z,97802.63
2022-11-08T14:56:51.661Z,97798.16
2022-11-08T14:59:56.697Z,97802.34
2022-11-08T15:03:03.814Z,97798.03
2022-11-08T15:06:13.554Z,97788.28
2022-11-08T15:09:20.451Z,97791.00
2022-11-08T15:12:26.226Z,97700.25
2022-11-08T15:15:32.216Z,97782.75
2022-11-08T15:18:38.223Z,97766.94
2022-11-08T15:21:49.133Z,97775.28
2022-11-08T15:25:01.915Z,97784.75
2022-11-08T15:28:21.460Z,97782.22
2022-11-08T15:31:28.143Z,97782.44
2022-11-08T15:34:38.137Z,97779.06
2022-11-08T15:37:42.506Z,97782.94
2022-11-08T15:40:50.957Z,97783.03
2022-11-08T15:44:13.361Z,97783.91
2022-11-08T15:47:36.624Z,97764.84
2022-11-08T15:50:39.738Z,97777.81
2022-11-08T15:53:43.010Z,97793.44
2022-11-08T15:56:47.136Z,97782.19
2022-11-08T15:59:51.636Z,97788.00
2022-11-08T16:02:55.564Z,97766.53
2022-11-08T16:05:58.821Z,97790.59
2022-11-08T16:09:01.973Z,97793.16
2022-11-08T16:12:05.814Z,97792.91
2022-11-08T16:15:13.764Z,97795.44
2022-11-08T16:18:19.789Z,97761.25
2022-11-08T16:21:23.711Z,97794.41
2022-11-08T16:24:26.914Z,97794.19
2022-11-08T16:27:30.011Z,97797.78
2022-11-08T16:34:13.395Z,97797.03
2022-11-08T16:37:16.574Z,97780.56
2022-11-08T16:40:22.458Z,97789.22
2022-11-08T16:43:25.621Z,97780.38
2022-11-08T16:46:29.930Z,97778.72
2022-11-08T16:49:34.417Z,97779.69
2022-11-08T16:52:37.507Z,97777.78
2022-11-08T16:55:40.567Z,97777.19
2022-11-08T16:58:44.339Z,97771.25
2022-11-08T17:01:49.789Z,97773.94
2022-11-08T17:04:54.364Z,97776.50
2022-11-08T17:07:58.092Z,97783.94
2022-11-08T17:11:01.396Z,97793.16
2022-11-08T17:14:04.562Z,97791.97
2022-11-08T17:17:07.809Z,97793.53
2022-11-08T17:20:14.573Z,97796.06
2022-11-08T17:23:17.747Z,97798.66
2022-11-08T17:26:21.190Z,97776.47
2022-11-08T17:29:24.428Z,97792.91
2022-11-08T17:32:27.569Z,97775.19
2022-11-08T17:35:32.296Z,97791.91
2022-11-08T17:38:36.170Z,97799.47
2022-11-08T17:41:39.534Z,97796.09
2022-11-08T17:44:42.615Z,97807.69
2022-11-08T17:47:45.963Z,97809.28
2022-11-08T17:50:50.442Z,97805.88
2022-11-08T17:53:53.571Z,97830.13
2022-11-08T17:56:56.813Z,97827.59
2022-11-08T18:00:00.114Z,97829.41
2022-11-08T18:03:08.785Z,97833.53
2022-11-08T18:06:16.526Z,97836.81
2022-11-08T18:09:20.072Z,97836.59
2022-11-08T18:12:23.245Z,97834.47
2022-11-08T18:15:26.304Z,97844.81
2022-11-08T18:18:29.821Z,97836.50
2022-11-08T18:21:34.599Z,97811.63
2022-11-08T18:24:38.062Z,97819.31
2022-11-08T18:27:41.167Z,97820.44
2022-11-08T18:30:47.791Z,97805.47
2022-11-08T18:33:52.647Z,97810.75
2022-11-08T18:36:58.262Z,97811.34
2022-11-08T18:40:01.468Z,97806.25
2022-11-08T18:43:04.716Z,97803.19
2022-11-08T18:46:09.757Z,97812.06
2022-11-08T18:49:12.846Z,97821.28
2022-11-08T18:52:17.565Z,97811.22
2022-11-08T18:55:20.681Z,97803.25
2022-11-08T18:58:24.308Z,97769.34
2022-11-08T19:01:27.546Z,97792.19
2022-11-08T19:04:30.861Z,97793.69
2022-11-08T19:07:35.322Z,97798.03
2022-11-08T19:10:38.428Z,97797.78
2022-11-08T19:13:42.375Z,97812.88
2022-11-08T19:16:45.492Z,97806.75
2022-11-08T19:19:48.648Z,97810.38
2022-11-08T19:22:55.663Z,97809.78
2022-11-08T19:26:01.024Z,97809.25
2022-11-08T19:29:04.718Z,97810.19
2022-11-08T19:32:07.911Z,97805.69
2022-11-08T19:35:11.144Z,97806.88
2022-11-08T19:38:15.944Z,97809.69
2022-11-08T19:41:21.544Z,97812.16
2022-11-08T19:44:24.705Z,97782.38
2022-11-08T19:47:27.821Z,97785.81
2022-11-08T19:50:30.978Z,97809.13
2022-11-08T19:53:35.815Z,97785.91
2022-11-08T20:00:02.362Z,97812.00
2022-11-08T20:03:15.747Z,97812.88
2022-11-08T20:06:21.432Z,97803.38
2022-11-08T20:09:30.218Z,97806.34
2022-11-08T20:12:34.173Z,97812.88
2022-11-08T20:15:37.347Z,97807.94
2022-11-08T20:18:40.827Z,97807.91
2022-11-08T20:21:46.154Z,97814.88
2022-11-08T20:24:51.133Z,97817.59
2022-11-08T20:27:54.224Z,97795.84
2022-11-08T20:31:03.396Z,97808.81
2022-11-08T20:34:10.203Z,97816.38
2022-11-08T20:37:14.631Z,97826.34
2022-11-08T20:40:19.305Z,97823.41
2022-11-08T20:43:22.852Z,97814.81
2022-11-08T20:46:26.476Z,97791.88
2022-11-08T20:49:30.134Z,97822.91
2022-11-08T20:52:33.267Z,97812.84
2022-11-08T20:55:37.729Z,97816.84
2022-11-08T20:58:41.312Z,97817.88
2022-11-08T21:01:44.512Z,97820.22
2022-11-08T21:04:47.658Z,97816.50
2022-11-08T21:08:57.124Z,97818.00
2022-11-08T21:11:15.755Z,97822.84
2022-11-08T21:14:19.151Z,97833.41
2022-11-08T21:17:22.852Z,97825.09
2022-11-08T21:20:26.779Z,97827.09
2022-11-08T21:23:30.130Z,97824.53
2022-11-08T21:26:36.373Z,97798.34
2022-11-08T21:29:40.146Z,97826.34
2022-11-08T21:32:43.433Z,97827.75
2022-11-08T21:35:49.410Z,97827.09
2022-11-08T21:38:52.542Z,97827.81
2022-11-08T21:41:57.063Z,97816.88
2022-11-08T21:45:00.181Z,97815.16
2022-11-08T21:48:03.323Z,97822.38
2022-11-08T21:51:07.052Z,97830.50
2022-11-08T21:54:10.273Z,97830.53
2022-11-08T21:57:14.834Z,97849.91
2022-11-08T22:00:18.641Z,97835.81
2022-11-08T22:03:23.850Z,97831.06
2022-11-08T22:06:27.267Z,97821.75
2022-11-08T22:09:30.584Z,97820.75
2022-11-08T22:12:35.472Z,97816.19
2022-11-08T22:15:38.543Z,97814.53
2022-11-08T22:22:05.293Z,97820.06
2022-11-08T22:25:09.422Z,97821.56
2022-11-08T22:28:14.331Z,97822.63
2022-11-08T22:34:14.038Z,97818.16
2022-11-08T22:37:17.436Z,97801.34
2022-11-08T22:40:20.815Z,97801.22
2022-11-08T22:43:23.965Z,97813.84
2022-11-08T22:46:27.181Z,97810.25
2022-11-08T22:49:31.738Z,97812.41
2022-11-08T22:52:34.993Z,97748.03
2022-11-08T22:55:38.037Z,97795.41
2022-11-08T22:58:41.322Z,97809.09
2022-11-08T23:01:44.479Z,97802.34
2022-11-08T23:04:48.950Z,97799.53
2022-11-08T23:07:52.102Z,97790.19
2022-11-08T23:11:13.180Z,97802.75
2022-11-08T23:14:37.120Z,97788.03
2022-11-08T23:17:40.708Z,97794.09
2022-11-08T23:21:03.072Z,97800.72
2022-11-08T23:24:23.730Z,97798.19
2022-11-08T23:27:45.493Z,97806.53
2022-11-08T23:31:06.041Z,97803.47
2022-11-08T23:34:09.301Z,97800.13
2022-11-08T23:37:14.069Z,97799.25
2022-11-08T23:40:36.581Z,97797.69
2022-11-08T23:43:57.497Z,97806.69
2022-11-08T23:47:02.588Z,97811.19
2022-11-08T23:50:06.881Z,97801.28
2022-11-08T23:53:11.704Z,97792.16
2022-11-08T23:56:21.394Z,97785.00
2022-11-08T23:59:24.531Z,97792.94
